createdAt,value
2022-09-02T00:00:31.812Z,17.24
2022-09-02T00:02:58.191Z,17.23
2022-09-02T00:04:28.074Z,17.20
2022-09-02T00:06:50.203Z,17.19
2022-09-02T00:08:20.398Z,17.15
2022-09-02T00:12:10.493Z,17.11
2022-09-02T00:15:24.527Z,17.05
2022-09-02T00:20:07.031Z,17.01
2022-09-02T00:21:40.980Z,17.01
2022-09-02T00:25:02.789Z,16.97
2022-09-02T00:28:24.150Z,16.94
2022-09-02T00:31:24.972Z,16.91
2022-09-02T00:40:22.763Z,16.84
2022-09-02T00:47:21.265Z,16.76
2022-09-02T00:55:01.115Z,16.71
2022-09-02T01:02:03.253Z,16.65
2022-09-02T01:05:11.340Z,16.64
2022-09-02T01:07:43.700Z,16.58
2022-09-02T01:10:41.955Z,16.56
2022-09-02T01:13:03.825Z,16.51
2022-09-02T01:16:23.561Z,16.51
2022-09-02T01:18:50.603Z,16.49
2022-09-02T01:26:47.227Z,16.41
2022-09-02T01:28:28.104Z,16.41
2022-09-02T01:34:38.628Z,16.38
2022-09-02T01:37:01.311Z,16.35
2022-09-02T01:38:32.111Z,16.36
2022-09-02T01:40:29.481Z,16.33
2022-09-02T01:45:10.297Z,16.31
2022-09-02T01:48:30.901Z,16.31
2022-09-02T01:50:02.765Z,16.28
2022-09-02T01:52:03.393Z,16.28
2022-09-02T01:56:58.832Z,16.23
2022-09-02T02:00:23.592Z,16.20
2022-09-02T02:01:54.737Z,16.20
2022-09-02T02:04:23.706Z,16.16
2022-09-02T02:17:47.572Z,16.10
2022-09-02T02:19:50.630Z,16.09
2022-09-02T02:21:38.779Z,16.05
2022-09-02T02:24:51.865Z,16.02
2022-09-02T02:29:00.468Z,16.00
2022-09-02T02:32:13.792Z,15.98
2022-09-02T02:35:46.892Z,15.95
2022-09-02T02:37:33.521Z,15.94
2022-09-02T02:39:22.292Z,15.94
2022-09-02T02:44:02.072Z,15.91
2022-09-02T02:46:05.677Z,15.91
2022-09-02T02:49:04.437Z,15.88
2022-09-02T02:50:36.368Z,15.88
2022-09-02T02:54:22.079Z,15.86
2022-09-02T02:56:33.047Z,15.84
2022-09-02T03:04:08.305Z,15.82
2022-09-02T03:06:27.007Z,15.79
2022-09-02T03:16:45.487Z,15.75
2022-09-02T03:20:44.092Z,15.72
2022-09-02T03:24:16.319Z,15.67
2022-09-02T03:26:51.619Z,15.64
2022-09-02T03:30:12.730Z,15.65
2022-09-02T03:34:18.769Z,15.64
2022-09-02T03:41:18.174Z,15.62
2022-09-02T03:45:12.868Z,15.59
2022-09-02T03:49:31.994Z,15.57
2022-09-02T03:52:32.502Z,15.55
2022-09-02T03:54:04.429Z,15.55
2022-09-02T03:55:34.278Z,15.55
2022-09-02T03:57:59.231Z,15.52
2022-09-02T03:59:26.948Z,15.51
2022-09-02T04:02:07.781Z,15.51
2022-09-02T04:03:35.614Z,15.51
2022-09-02T04:05:37.550Z,15.49
2022-09-02T04:11:56.419Z,15.49
2022-09-02T04:17:54.571Z,15.49
2022-09-02T04:20:01.839Z,15.47
2022-09-02T04:24:45.153Z,15.47
2022-09-02T04:26:13.403Z,15.46
2022-09-02T04:29:02.061Z,15.47
2022-09-02T04:31:05.813Z,15.43
2022-09-02T04:33:21.284Z,15.43
2022-09-02T04:35:39.812Z,15.42
2022-09-02T04:41:16.952Z,15.37
2022-09-02T04:44:07.575Z,15.35
2022-09-02T04:45:37.703Z,15.35
2022-09-02T04:50:03.541Z,15.31
2022-09-02T04:56:10.106Z,15.22
2022-09-02T04:57:39.096Z,15.19
2022-09-02T05:02:21.588Z,15.17
2022-09-02T05:06:50.926Z,15.14
2022-09-02T05:08:23.516Z,15.14
2022-09-02T05:09:50.604Z,15.11
2022-09-02T05:11:21.045Z,15.10
2022-09-02T05:14:14.094Z,15.10
2022-09-02T05:18:00.975Z,15.07
2022-09-02T05:19:28.057Z,15.07
2022-09-02T05:21:46.837Z,15.06
2022-09-02T05:24:07.347Z,15.04
2022-09-02T05:27:31.117Z,15.04
2022-09-02T05:35:00.226Z,15.06
2022-09-02T05:37:13.103Z,15.04
2022-09-02T05:39:02.790Z,15.06
2022-09-02T05:40:31.156Z,15.07
2022-09-02T05:44:39.199Z,15.10
2022-09-02T05:52:03.309Z,15.14
2022-09-02T05:54:54.349Z,15.17
2022-09-02T05:57:01.284Z,15.18
2022-09-02T06:07:48.039Z,15.39
2022-09-02T06:11:50.746Z,15.46
2022-09-02T06:13:21.566Z,15.46
2022-09-02T06:18:14.305Z,15.54
2022-09-02T06:19:40.913Z,15.57
2022-09-02T06:22:46.895Z,15.64
2022-09-02T06:25:17.961Z,15.72
2022-09-02T06:32:03.288Z,15.92
2022-09-02T06:33:32.276Z,15.98
2022-09-02T06:36:33.970Z,16.09
2022-09-02T06:38:48.713Z,16.17
2022-09-02T06:42:14.927Z,16.31
2022-09-02T06:45:20.787Z,16.36
2022-09-02T06:48:11.658Z,16.46
2022-09-02T06:50:00.638Z,16.51
2022-09-02T06:52:29.281Z,16.61
2022-09-02T06:58:18.996Z,16.79
2022-09-02T07:04:27.013Z,16.94
2022-09-02T07:07:52.629Z,17.01
2022-09-02T07:16:03.124Z,17.23
2022-09-02T07:18:49.801Z,17.33
2022-09-02T07:23:30.035Z,17.54
2022-09-02T07:24:58.948Z,17.59
2022-09-02T07:32:43.407Z,17.74
2022-09-02T07:34:33.094Z,17.79
2022-09-02T07:36:01.023Z,17.82
2022-09-02T07:39:01.753Z,17.86
2022-09-02T07:45:25.566Z,18.00
2022-09-02T07:47:27.214Z,18.03
2022-09-02T07:48:57.094Z,18.04
2022-09-02T07:50:26.347Z,18.08
2022-09-02T07:53:03.059Z,18.10
2022-09-02T07:56:20.820Z,18.18
2022-09-02T07:58:40.442Z,18.23
2022-09-02T08:04:40.315Z,18.63
2022-09-02T08:08:59.763Z,18.89
2022-09-02T08:12:36.723Z,19.12
2022-09-02T08:14:25.165Z,19.21
2022-09-02T08:17:13.203Z,19.27
2022-09-02T08:19:30.833Z,19.36
2022-09-02T08:25:05.085Z,19.58
2022-09-02T08:30:09.529Z,19.77
2022-09-02T08:32:07.470Z,19.85
2022-09-02T08:37:07.153Z,20.04
2022-09-02T08:39:04.476Z,20.11
2022-09-02T08:49:48.611Z,20.47
2022-09-02T08:51:47.025Z,20.52
2022-09-02T08:53:15.865Z,20.56
2022-09-02T08:56:28.747Z,20.66
2022-09-02T08:58:39.436Z,20.74
2022-09-02T09:00:38.534Z,20.85
2022-09-02T09:02:47.609Z,20.97
2022-09-02T09:05:06.146Z,21.07
2022-09-02T09:06:54.824Z,21.14
2022-09-02T09:11:44.220Z,21.32
2022-09-02T09:13:48.424Z,21.39
2022-09-02T09:15:17.348Z,21.42
2022-09-02T09:18:25.739Z,21.52
2022-09-02T09:21:17.588Z,21.61
2022-09-02T09:24:36.674Z,21.75
2022-09-02T09:33:47.085Z,22.06
2022-09-02T09:39:27.598Z,22.26
2022-09-02T09:44:27.047Z,22.41
2022-09-02T09:46:47.861Z,22.45
2022-09-02T09:49:44.956Z,22.55
2022-09-02T09:51:14.885Z,22.59
2022-09-02T09:52:45.826Z,22.66
2022-09-02T09:55:26.787Z,22.75
2022-09-02T09:57:27.030Z,22.81
2022-09-02T10:01:28.295Z,22.88
2022-09-02T10:03:32.832Z,22.94
2022-09-02T10:05:00.562Z,23.00
2022-09-02T10:08:03.447Z,23.13
2022-09-02T10:09:30.644Z,23.21
2022-09-02T10:22:21.343Z,24.10
2022-09-02T10:25:46.684Z,24.36
2022-09-02T10:29:17.468Z,24.51
2022-09-02T10:30:47.346Z,24.60
2022-09-02T10:41:22.078Z,25.04
2022-09-02T10:44:11.142Z,25.13
2022-09-02T10:48:25.031Z,25.26
2022-09-02T10:52:15.096Z,25.48
2022-09-02T10:55:45.515Z,25.68
2022-09-02T11:01:14.892Z,25.91
2022-09-02T11:03:16.852Z,26.05
2022-09-02T11:04:46.170Z,26.13
2022-09-02T11:07:08.012Z,26.26
2022-09-02T11:08:43.847Z,26.36
2022-09-02T11:13:42.198Z,26.52
2022-09-02T11:15:42.074Z,26.62
2022-09-02T11:18:01.023Z,26.81
2022-09-02T11:20:50.105Z,27.05
2022-09-02T11:22:39.833Z,27.15
2022-09-02T11:24:45.837Z,27.22
2022-09-02T11:26:32.993Z,27.30
2022-09-02T11:28:01.424Z,27.40
2022-09-02T11:29:49.977Z,27.40
2022-09-02T11:35:21.410Z,27.55
2022-09-02T11:37:41.571Z,27.49
2022-09-02T11:47:45.780Z,27.98
2022-09-02T11:50:39.474Z,28.07
2022-09-02T11:52:06.810Z,28.11
2022-09-02T11:53:35.733Z,28.20
2022-09-02T11:55:34.561Z,28.29
2022-09-02T12:00:24.230Z,28.35
2022-09-02T12:02:43.794Z,28.29
2022-09-02T12:05:35.137Z,28.11
2022-09-02T12:07:36.203Z,28.22
2022-09-02T12:09:24.017Z,28.12
2022-09-02T12:11:15.677Z,28.17
2022-09-02T12:20:36.038Z,28.84
2022-09-02T12:23:32.790Z,28.82
2022-09-02T12:26:21.065Z,28.91
2022-09-02T12:29:19.781Z,28.44
2022-09-02T12:34:03.915Z,28.08
2022-09-02T12:37:21.551Z,28.11
2022-09-02T12:38:50.413Z,28.10
2022-09-02T12:41:48.399Z,27.86
2022-09-02T12:44:06.257Z,27.52
2022-09-02T12:51:06.889Z,26.78
2022-09-02T12:52:36.304Z,26.71
2022-09-02T12:54:06.185Z,26.65
2022-09-02T12:56:04.177Z,26.58
2022-09-02T12:58:04.118Z,26.53
2022-09-02T13:00:06.019Z,26.48
2022-09-02T13:03:51.665Z,26.40
2022-09-02T13:08:05.300Z,26.19
2022-09-02T13:11:03.058Z,26.15
2022-09-02T13:17:32.763Z,26.18
2022-09-02T13:24:00.377Z,26.59
2022-09-02T13:25:59.912Z,26.63
2022-09-02T13:28:56.932Z,26.56
2022-09-02T13:30:25.823Z,26.51
2022-09-02T13:36:39.660Z,26.51
2022-09-02T13:38:39.569Z,26.51
2022-09-02T13:40:38.014Z,26.51
2022-09-02T13:42:35.822Z,26.48
2022-09-02T13:44:05.731Z,26.47
2022-09-02T13:47:33.501Z,26.56
2022-09-02T13:49:37.328Z,26.58
2022-09-02T13:51:51.839Z,26.55
2022-09-02T14:03:24.891Z,26.10
2022-09-02T14:09:57.763Z,26.09
2022-09-02T14:12:24.675Z,26.05
2022-09-02T14:15:22.430Z,25.96
2022-09-02T14:18:58.804Z,25.85
2022-09-02T14:20:27.680Z,25.83
2022-09-02T14:23:25.372Z,25.96
2022-09-02T14:31:06.249Z,26.73
2022-09-02T14:36:49.653Z,27.03
2022-09-02T14:38:21.443Z,27.12
2022-09-02T14:39:48.933Z,27.08
2022-09-02T14:42:45.373Z,27.29
2022-09-02T14:46:10.153Z,27.07
2022-09-02T14:51:35.514Z,26.73
2022-09-02T14:55:31.686Z,26.37
2022-09-02T14:57:00.583Z,26.28
2022-09-02T14:59:56.386Z,26.13
2022-09-02T15:01:25.362Z,26.06
2022-09-02T15:03:23.276Z,25.99
2022-09-02T15:04:52.161Z,25.93
2022-09-02T15:06:22.029Z,25.90
2022-09-02T15:11:08.878Z,25.87
2022-09-02T15:13:36.048Z,25.87
2022-09-02T15:15:34.651Z,25.96
2022-09-02T15:18:31.555Z,26.55
2022-09-02T15:20:29.422Z,26.70
2022-09-02T15:21:58.307Z,26.73
2022-09-02T15:23:28.645Z,26.83
2022-09-02T15:31:28.176Z,26.93
2022-09-02T15:47:55.669Z,26.26
2022-09-02T15:50:22.409Z,26.21
2022-09-02T15:56:04.879Z,26.03
2022-09-02T16:01:40.935Z,25.77
2022-09-02T16:04:07.883Z,25.78
2022-09-02T16:05:37.217Z,25.77
2022-09-02T16:08:33.429Z,25.72
2022-09-02T16:10:03.755Z,25.69
2022-09-02T16:14:40.365Z,25.60
2022-09-02T16:17:38.371Z,25.59
2022-09-02T16:21:08.883Z,25.53
2022-09-02T16:24:35.628Z,25.46
2022-09-02T16:28:52.104Z,25.47
2022-09-02T16:30:21.014Z,25.50
2022-09-02T16:35:55.373Z,25.58
2022-09-02T16:38:53.195Z,25.65
2022-09-02T16:40:52.106Z,25.63
2022-09-02T16:42:40.753Z,25.62
2022-09-02T16:46:57.584Z,25.55
2022-09-02T16:55:16.617Z,25.55
2022-09-02T16:57:44.502Z,25.55
2022-09-02T17:00:12.208Z,25.58
2022-09-02T17:02:12.987Z,25.55
2022-09-02T17:04:42.689Z,25.48
2022-09-02T17:10:04.910Z,25.43
2022-09-02T17:13:52.407Z,25.32
2022-09-02T17:15:21.508Z,25.23
2022-09-02T17:17:19.527Z,25.21
2022-09-02T17:20:36.166Z,25.07
2022-09-02T17:23:33.101Z,25.01
2022-09-02T17:26:28.916Z,24.98
2022-09-02T17:27:58.854Z,24.92
2022-09-02T17:30:32.770Z,24.78
2022-09-02T17:31:59.621Z,24.76
2022-09-02T17:35:27.568Z,24.73
2022-09-02T17:46:10.839Z,24.35
2022-09-02T17:59:44.205Z,24.05
2022-09-02T18:01:13.127Z,24.02
2022-09-02T18:02:43.017Z,23.98
2022-09-02T18:04:40.899Z,23.93
2022-09-02T18:06:40.152Z,23.87
2022-09-02T18:19:13.897Z,23.50
2022-09-02T18:21:32.076Z,23.43
2022-09-02T18:25:27.807Z,23.34
2022-09-02T18:26:57.747Z,23.28
2022-09-02T18:28:26.716Z,23.27
2022-09-02T18:32:50.209Z,23.18
2022-09-02T18:36:07.821Z,23.09
2022-09-02T18:37:56.475Z,23.06
2022-09-02T18:40:44.014Z,23.02
2022-09-02T18:42:41.878Z,22.99
2022-09-02T18:52:58.842Z,22.80
2022-09-02T18:58:42.913Z,22.66
2022-09-02T19:03:18.212Z,22.55
2022-09-02T19:04:48.062Z,22.53
2022-09-02T19:06:45.850Z,22.50
2022-09-02T19:08:15.274Z,22.47
2022-09-02T19:09:44.652Z,22.44
2022-09-02T19:12:22.534Z,22.38
2022-09-02T19:13:52.481Z,22.36
2022-09-02T19:16:19.721Z,22.32
2022-09-02T19:24:41.148Z,22.17
2022-09-02T19:26:29.863Z,22.14
2022-09-02T19:27:58.748Z,22.13
2022-09-02T19:30:07.799Z,22.10
2022-09-02T19:32:36.630Z,22.06
2022-09-02T19:34:06.602Z,22.04
2022-09-02T19:40:03.669Z,21.92
2022-09-02T19:41:58.441Z,21.89
2022-09-02T19:44:26.132Z,21.83
2022-09-02T19:47:11.748Z,21.80
2022-09-02T19:48:56.245Z,21.79
2022-09-02T19:53:42.584Z,21.72
2022-09-02T19:55:45.431Z,21.69
2022-09-02T20:00:20.368Z,21.61
2022-09-02T20:03:55.914Z,21.55
2022-09-02T20:06:52.605Z,21.54
2022-09-02T20:09:50.151Z,21.46
2022-09-02T20:12:17.061Z,21.43
2022-09-02T20:14:07.040Z,21.40
2022-09-02T20:15:44.868Z,21.39
2022-09-02T20:18:02.705Z,21.36
2022-09-02T20:23:18.841Z,21.25
2022-09-02T20:25:16.747Z,21.21
2022-09-02T20:26:45.787Z,21.18
2022-09-02T20:28:45.687Z,21.14
2022-09-02T20:34:07.928Z,21.05
2022-09-02T20:41:39.913Z,20.92
2022-09-02T20:43:08.803Z,20.90
2022-09-02T20:46:36.905Z,20.82
2022-09-02T20:51:31.147Z,20.74
2022-09-02T20:54:01.321Z,20.67
2022-09-02T20:57:25.163Z,20.62
2022-09-02T20:59:24.003Z,20.58
2022-09-02T21:02:51.437Z,20.51
2022-09-02T21:06:40.298Z,20.41
2022-09-02T21:09:07.937Z,20.39
2022-09-02T21:11:06.006Z,20.34
2022-09-02T21:14:33.204Z,20.28
2022-09-02T21:17:11.501Z,20.22
2022-09-02T21:19:40.658Z,20.18
2022-09-02T21:23:38.075Z,20.13
2022-09-02T21:25:07.093Z,20.09
2022-09-02T21:29:02.573Z,20.03
2022-09-02T21:32:27.519Z,19.95
2022-09-02T21:36:05.688Z,19.89
2022-09-02T21:39:34.661Z,19.85
2022-09-02T21:41:03.501Z,19.84
2022-09-02T21:44:02.797Z,19.76
2022-09-02T21:46:29.748Z,19.73
2022-09-02T21:55:47.573Z,19.58
2022-09-02T21:57:17.416Z,19.54
2022-09-02T21:58:47.414Z,19.51
2022-09-02T22:00:16.376Z,19.51
2022-09-02T22:02:16.273Z,19.48
2022-09-02T22:06:51.057Z,19.39
2022-09-02T22:09:47.409Z,19.36
2022-09-02T22:13:32.844Z,19.37
2022-09-02T22:16:30.759Z,19.30
2022-09-02T22:20:30.476Z,19.27
2022-09-02T22:25:12.023Z,19.22
2022-09-02T22:27:38.764Z,19.18
2022-09-02T22:30:37.505Z,19.14
2022-09-02T22:33:08.235Z,19.11
2022-09-02T22:35:36.210Z,19.07
2022-09-02T22:41:03.968Z,19.00
2022-09-02T22:45:58.871Z,18.93
2022-09-02T22:49:54.696Z,18.90
2022-09-02T22:51:53.924Z,18.88
2022-09-02T22:56:48.571Z,18.86
2022-09-02T23:00:34.123Z,18.81
2022-09-02T23:05:58.506Z,18.78
2022-09-02T23:08:54.461Z,18.77
2022-09-02T23:10:52.375Z,18.77
2022-09-02T23:14:46.821Z,18.73
2022-09-02T23:18:42.279Z,18.68
2022-09-02T23:20:11.304Z,18.66
2022-09-02T23:29:11.544Z,18.55
2022-09-02T23:30:40.943Z,18.52
2022-09-02T23:32:10.839Z,18.50
2022-09-02T23:35:38.452Z,18.45
2022-09-02T23:38:05.336Z,18.44
2022-09-02T23:42:59.784Z,18.37
2022-09-02T23:45:26.570Z,18.35
2022-09-02T23:46:55.595Z,18.34
2022-09-02T23:48:24.577Z,18.33
2022-09-02T23:50:52.285Z,18.29
2022-09-02T23:55:16.644Z,18.25
2022-09-02T23:56:46.491Z,18.22
2022-09-02T23:59:13.240Z,18.18
